Snow/Ice From: 16-12-2017 16:00 Until: 17-12-2017 16:00 warning for: Snow/Ice Level: Yellow info button

Although rather usual in this region, locally or potentially dangerous phenomena are expected. (such as local winds, summer thunderstorms, rising streams or high waves) Be aware and pay attention to the latest weather updates, especially if you carry out activities exposed to weather or close to a stream or shoreline. 


Meteo18 Weather Cam more information Meteo18 Weather Cam


Thunder radar more information blitzortung!


warning for Snow/Ice more information rain snow radar


Visit our other weather sites:

Template documentation
and downloads

And another site



Weather Underground History page Text

Daily Summary for February 6, 2017 Units:  Both    English   Metric
« Previous Day
Next Day »
Daily Weekly Monthly Yearly Custom
  High: Low: Average:
Temperature: 46.4 °F /  8.0 °C 38.8 °F /  3.8 °C 41.4 °F /  5.2 °C
Dew Point: 40.3 °F /  4.6 °C 36.5 °F /  2.5 °C 37.9 °F /  3.3 °C
Humidity: 93 % 76 % 87 %
Wind Speed: 16 mph /  25.7 km/h - 3.6 mph /  5.8 km/h
Wind Gust: 22 mph /  35.4 km/h - -
Wind:- - WNW
Pressure: 30.2 in /  1021.2 hPa 29.8 in /  1009.7 hPa -
Precipitation: 0 in /  0.0 mm    
Historical Graphs
 
 
Tabular Data for February 6, 2017
Time Temperature Dew Point Pressure Wind Wind Speed Wind Gust Humidity Rainfall Rate (Hourly)
00:02 42.4 °F /  5.8 °C 39.7 °F /  4.3 °C 29.8 in /  1009.7 hPa WNW 9 mph /  14.5 km/h 18 mph /  29.0 km/h 90 % 0 in /  0.0 mm
00:07 42.4 °F /  5.8 °C 39.7 °F /  4.3 °C 29.8 in /  1009.7 hPa NW 6 mph /  9.7 km/h 17 mph /  27.4 km/h 90 % 0 in /  0.0 mm
00:12 42.4 °F /  5.8 °C 39.7 °F /  4.3 °C 29.8 in /  1010.0 hPa NW 8 mph /  12.9 km/h 22 mph /  35.4 km/h 90 % 0 in /  0.0 mm
00:17 42.4 °F /  5.8 °C 39.9 °F /  4.4 °C 29.8 in /  1010.0 hPa WNW 13 mph /  20.9 km/h 22 mph /  35.4 km/h 91 % 0 in /  0.0 mm
00:22 42.4 °F /  5.8 °C 39.7 °F /  4.3 °C 29.8 in /  1010.4 hPa West 4 mph /  6.4 km/h 19 mph /  30.6 km/h 90 % 0 in /  0.0 mm
00:32 42.4 °F /  5.8 °C 39.7 °F /  4.3 °C 29.8 in /  1010.4 hPa WNW 11 mph /  17.7 km/h 17 mph /  27.4 km/h 90 % 0 in /  0.0 mm
00:42 42.4 °F /  5.8 °C 39.9 °F /  4.4 °C 29.8 in /  1010.7 hPa NW 3 mph /  4.8 km/h 15 mph /  24.1 km/h 91 % 0 in /  0.0 mm
00:47 42.4 °F /  5.8 °C 39.9 °F /  4.4 °C 29.8 in /  1010.7 hPa WNW 3 mph /  4.8 km/h 12 mph /  19.3 km/h 91 % 0 in /  0.0 mm
00:52 42.4 °F /  5.8 °C 39.9 °F /  4.4 °C 29.9 in /  1011.1 hPa WNW 3 mph /  4.8 km/h 12 mph /  19.3 km/h 91 % 0 in /  0.0 mm
00:57 42.4 °F /  5.8 °C 39.9 °F /  4.4 °C 29.9 in /  1011.1 hPa NW 8 mph /  12.9 km/h 12 mph /  19.3 km/h 91 % 0 in /  0.0 mm
01:02 42.4 °F /  5.8 °C 39.7 °F /  4.3 °C 29.9 in /  1011.1 hPa WNW 6 mph /  9.7 km/h 12 mph /  19.3 km/h 90 % 0 in /  0.0 mm
01:07 42.3 °F /  5.7 °C 39.6 °F /  4.2 °C 29.9 in /  1011.1 hPa NW 7 mph /  11.3 km/h 15 mph /  24.1 km/h 90 % 0 in /  0.0 mm
01:12 42.1 °F /  5.6 °C 39 °F /  3.9 °C 29.9 in /  1011.4 hPa NNW 9 mph /  14.5 km/h 16 mph /  25.7 km/h 89 % 0 in /  0.0 mm
01:17 42.1 °F /  5.6 °C 39 °F /  3.9 °C 29.9 in /  1011.4 hPa NNW 6 mph /  9.7 km/h 17 mph /  27.4 km/h 89 % 0 in /  0.0 mm
01:22 41.9 °F /  5.5 °C 38.8 °F /  3.8 °C 29.9 in /  1011.4 hPa WNW 6 mph /  9.7 km/h 17 mph /  27.4 km/h 89 % 0 in /  0.0 mm
01:27 41.7 °F /  5.4 °C 39 °F /  3.9 °C 29.9 in /  1011.7 hPa NW 3 mph /  4.8 km/h 17 mph /  27.4 km/h 90 % 0 in /  0.0 mm
01:32 41.7 °F /  5.4 °C 39 °F /  3.9 °C 29.9 in /  1011.7 hPa WNW 3 mph /  4.8 km/h 13 mph /  20.9 km/h 90 % 0 in /  0.0 mm
01:37 41.4 °F /  5.2 °C 39 °F /  3.9 °C 29.9 in /  1011.7 hPa WNW 6 mph /  9.7 km/h 13 mph /  20.9 km/h 91 % 0 in /  0.0 mm
01:42 41.2 °F /  5.1 °C 38.8 °F /  3.8 °C 29.9 in /  1011.7 hPa WNW 5 mph /  8.0 km/h 13 mph /  20.9 km/h 91 % 0 in /  0.0 mm
01:47 41 °F /  5.0 °C 38.8 °F /  3.8 °C 29.9 in /  1012.1 hPa WNW 5 mph /  8.0 km/h 13 mph /  20.9 km/h 92 % 0 in /  0.0 mm
01:52 40.8 °F /  4.9 °C 38.7 °F /  3.7 °C 29.9 in /  1012.1 hPa WNW 1 mph /  1.6 km/h 11 mph /  17.7 km/h 92 % 0 in /  0.0 mm
01:57 40.6 °F /  4.8 °C 38.5 °F /  3.6 °C 29.9 in /  1012.4 hPa NNW 4 mph /  6.4 km/h 12 mph /  19.3 km/h 92 % 0 in /  0.0 mm
02:02 40.6 °F /  4.8 °C 38.8 °F /  3.8 °C 29.9 in /  1012.4 hPa WNW 3 mph /  4.8 km/h 12 mph /  19.3 km/h 93 % 0 in /  0.0 mm
02:07 40.5 °F /  4.7 °C 38.7 °F /  3.7 °C 29.9 in /  1012.4 hPa NW 4 mph /  6.4 km/h 10 mph /  16.1 km/h 93 % 0 in /  0.0 mm
02:12 40.3 °F /  4.6 °C 38.5 °F /  3.6 °C 29.9 in /  1012.4 hPa North 10 mph /  16.1 km/h 11 mph /  17.7 km/h 93 % 0 in /  0.0 mm
02:17 39.9 °F /  4.4 °C 37.8 °F /  3.2 °C 29.9 in /  1012.4 hPa WNW 2 mph /  3.2 km/h 11 mph /  17.7 km/h 92 % 0 in /  0.0 mm
02:22 39.9 °F /  4.4 °C 37.8 °F /  3.2 °C 29.9 in /  1012.8 hPa WNW 2 mph /  3.2 km/h 11 mph /  17.7 km/h 92 % 0 in /  0.0 mm
02:27 39.9 °F /  4.4 °C 38.1 °F /  3.4 °C 29.9 in /  1012.8 hPa WNW 5 mph /  8.0 km/h 11 mph /  17.7 km/h 93 % 0 in /  0.0 mm
02:32 39.7 °F /  4.3 °C 37.9 °F /  3.3 °C 29.9 in /  1012.8 hPa NW 1 mph /  1.6 km/h 11 mph /  17.7 km/h 93 % 0 in /  0.0 mm
02:37 39.7 °F /  4.3 °C 37.9 °F /  3.3 °C 29.9 in /  1013.1 hPa WNW 7 mph /  11.3 km/h 11 mph /  17.7 km/h 93 % 0 in /  0.0 mm
02:42 39.7 °F /  4.3 °C 37.9 °F /  3.3 °C 29.9 in /  1013.1 hPa West 13 mph /  20.9 km/h 13 mph /  20.9 km/h 93 % 0 in /  0.0 mm
02:47 39.6 °F /  4.2 °C 37.8 °F /  3.2 °C 29.9 in /  1013.4 hPa WNW 7 mph /  11.3 km/h 14 mph /  22.5 km/h 93 % 0 in /  0.0 mm
02:52 39.6 °F /  4.2 °C 37.8 °F /  3.2 °C 29.9 in /  1013.4 hPa WNW 5 mph /  8.0 km/h 14 mph /  22.5 km/h 93 % 0 in /  0.0 mm
02:57 39.6 °F /  4.2 °C 37.8 °F /  3.2 °C 29.9 in /  1013.4 hPa WNW 4 mph /  6.4 km/h 15 mph /  24.1 km/h 93 % 0 in /  0.0 mm
03:02 39.7 °F /  4.3 °C 37.6 °F /  3.1 °C 29.9 in /  1013.4 hPa West 6 mph /  9.7 km/h 19 mph /  30.6 km/h 92 % 0 in /  0.0 mm
03:07 39.7 °F /  4.3 °C 37.6 °F /  3.1 °C 29.9 in /  1013.4 hPa NW 4 mph /  6.4 km/h 19 mph /  30.6 km/h 92 % 0 in /  0.0 mm
03:12 39.7 °F /  4.3 °C 37.6 °F /  3.1 °C 29.9 in /  1013.4 hPa WNW 11 mph /  17.7 km/h 19 mph /  30.6 km/h 92 % 0 in /  0.0 mm
03:17 39.7 °F /  4.3 °C 37.6 °F /  3.1 °C 29.9 in /  1013.8 hPa WNW 16 mph /  25.7 km/h 19 mph /  30.6 km/h 92 % 0 in /  0.0 mm
03:22 39.6 °F /  4.2 °C 37.4 °F /  3.0 °C 29.9 in /  1013.8 hPa West 9 mph /  14.5 km/h 19 mph /  30.6 km/h 92 % 0 in /  0.0 mm
03:32 39.6 °F /  4.2 °C 37.8 °F /  3.2 °C 29.9 in /  1014.1 hPa WNW 4 mph /  6.4 km/h 18 mph /  29.0 km/h 93 % 0 in /  0.0 mm
03:37 39.4 °F /  4.1 °C 37.6 °F /  3.1 °C 29.9 in /  1014.1 hPa NW 15 mph /  24.1 km/h 19 mph /  30.6 km/h 93 % 0 in /  0.0 mm
03:42 39.4 °F /  4.1 °C 37.2 °F /  2.9 °C 29.9 in /  1014.1 hPa West 9 mph /  14.5 km/h 19 mph /  30.6 km/h 92 % 0 in /  0.0 mm
03:47 39.4 °F /  4.1 °C 37.6 °F /  3.1 °C 29.9 in /  1014.1 hPa WNW 12 mph /  19.3 km/h 19 mph /  30.6 km/h 93 % 0 in /  0.0 mm
03:52 39.4 °F /  4.1 °C 37.6 °F /  3.1 °C 30 in /  1014.4 hPa NW 3 mph /  4.8 km/h 19 mph /  30.6 km/h 93 % 0 in /  0.0 mm
03:57 39.4 °F /  4.1 °C 37.6 °F /  3.1 °C 30 in /  1014.4 hPa NW 7 mph /  11.3 km/h 18 mph /  29.0 km/h 93 % 0 in /  0.0 mm
04:02 39.6 °F /  4.2 °C 37.4 °F /  3.0 °C 30 in /  1014.8 hPa WNW 8 mph /  12.9 km/h 18 mph /  29.0 km/h 92 % 0 in /  0.0 mm
04:07 39.6 °F /  4.2 °C 37.4 °F /  3.0 °C 30 in /  1014.8 hPa WNW 10 mph /  16.1 km/h 16 mph /  25.7 km/h 92 % 0 in /  0.0 mm
04:12 39.6 °F /  4.2 °C 37.4 °F /  3.0 °C 30 in /  1014.8 hPa NW 4 mph /  6.4 km/h 20 mph /  32.2 km/h 92 % 0 in /  0.0 mm
04:17 39.7 °F /  4.3 °C 37.4 °F /  3.0 °C 30 in /  1014.8 hPa WNW 10 mph /  16.1 km/h 20 mph /  32.2 km/h 91 % 0 in /  0.0 mm
04:22 39.7 °F /  4.3 °C 37.4 °F /  3.0 °C 30 in /  1014.8 hPa WNW 9 mph /  14.5 km/h 22 mph /  35.4 km/h 91 % 0 in /  0.0 mm
04:32 39.7 °F /  4.3 °C 37.4 °F /  3.0 °C 30 in /  1015.1 hPa NW 10 mph /  16.1 km/h 20 mph /  32.2 km/h 91 % 0 in /  0.0 mm
04:37 39.7 °F /  4.3 °C 37 °F /  2.8 °C 30 in /  1015.1 hPa NNW 6 mph /  9.7 km/h 20 mph /  32.2 km/h 90 % 0 in /  0.0 mm
04:42 39.7 °F /  4.3 °C 37 °F /  2.8 °C 30 in /  1015.5 hPa NW 6 mph /  9.7 km/h 20 mph /  32.2 km/h 90 % 0 in /  0.0 mm
04:47 39.9 °F /  4.4 °C 36.9 °F /  2.7 °C 30 in /  1015.5 hPa NW 6 mph /  9.7 km/h 20 mph /  32.2 km/h 89 % 0 in /  0.0 mm
04:52 39.9 °F /  4.4 °C 36.9 °F /  2.7 °C 30 in /  1015.5 hPa NNW 4 mph /  6.4 km/h 20 mph /  32.2 km/h 89 % 0 in /  0.0 mm
04:57 39.9 °F /  4.4 °C 36.9 °F /  2.7 °C 30 in /  1015.8 hPa NW 7 mph /  11.3 km/h 21 mph /  33.8 km/h 89 % 0 in /  0.0 mm
05:02 39.9 °F /  4.4 °C 36.9 °F /  2.7 °C 30 in /  1015.8 hPa East 8 mph /  12.9 km/h 22 mph /  35.4 km/h 89 % 0 in /  0.0 mm
05:07 40.1 °F /  4.5 °C 37 °F /  2.8 °C 30 in /  1016.1 hPa NNW 14 mph /  22.5 km/h 22 mph /  35.4 km/h 89 % 0 in /  0.0 mm
05:12 40.1 °F /  4.5 °C 37 °F /  2.8 °C 30 in /  1016.1 hPa NW 4 mph /  6.4 km/h 22 mph /  35.4 km/h 89 % 0 in /  0.0 mm
05:17 40.1 °F /  4.5 °C 37 °F /  2.8 °C 30 in /  1016.1 hPa NNW 12 mph /  19.3 km/h 21 mph /  33.8 km/h 89 % 0 in /  0.0 mm
05:22 40.1 °F /  4.5 °C 37 °F /  2.8 °C 30 in /  1016.1 hPa NW 9 mph /  14.5 km/h 17 mph /  27.4 km/h 89 % 0 in /  0.0 mm
05:27 40.3 °F /  4.6 °C 37 °F /  2.8 °C 30 in /  1016.5 hPa NW 7 mph /  11.3 km/h 18 mph /  29.0 km/h 88 % 0 in /  0.0 mm
05:32 40.3 °F /  4.6 °C 37 °F /  2.8 °C 30 in /  1016.5 hPa WNW 12 mph /  19.3 km/h 18 mph /  29.0 km/h 88 % 0 in /  0.0 mm
05:37 40.3 °F /  4.6 °C 37.2 °F /  2.9 °C 30 in /  1016.5 hPa NW 4 mph /  6.4 km/h 16 mph /  25.7 km/h 89 % 0 in /  0.0 mm
05:42 40.3 °F /  4.6 °C 37.6 °F /  3.1 °C 30 in /  1016.5 hPa North 4 mph /  6.4 km/h 14 mph /  22.5 km/h 90 % 0 in /  0.0 mm
05:47 39.9 °F /  4.4 °C 37.2 °F /  2.9 °C 30 in /  1016.8 hPa WNW 11 mph /  17.7 km/h 16 mph /  25.7 km/h 90 % 0 in /  0.0 mm
05:52 40.1 °F /  4.5 °C 37.4 °F /  3.0 °C 30 in /  1016.8 hPa North 13 mph /  20.9 km/h 16 mph /  25.7 km/h 90 % 0 in /  0.0 mm
05:57 39.9 °F /  4.4 °C 37.2 °F /  2.9 °C 30 in /  1016.8 hPa NW 11 mph /  17.7 km/h 18 mph /  29.0 km/h 90 % 0 in /  0.0 mm
06:02 40.1 °F /  4.5 °C 37.4 °F /  3.0 °C 30 in /  1016.8 hPa NW 9 mph /  14.5 km/h 18 mph /  29.0 km/h 90 % 0 in /  0.0 mm
06:12 40.3 °F /  4.6 °C 37.6 °F /  3.1 °C 30 in /  1017.2 hPa NNW 4 mph /  6.4 km/h 17 mph /  27.4 km/h 90 % 0 in /  0.0 mm
06:17 40.3 °F /  4.6 °C 37.6 °F /  3.1 °C 30 in /  1017.2 hPa NNW 5 mph /  8.0 km/h 17 mph /  27.4 km/h 90 % 0 in /  0.0 mm
06:22 40.3 °F /  4.6 °C 37.6 °F /  3.1 °C 30 in /  1017.2 hPa NNW 5 mph /  8.0 km/h 17 mph /  27.4 km/h 90 % 0 in /  0.0 mm
06:27 40.3 °F /  4.6 °C 37.6 °F /  3.1 °C 30 in /  1017.2 hPa NNW 3 mph /  4.8 km/h 15 mph /  24.1 km/h 90 % 0 in /  0.0 mm
06:32 40.3 °F /  4.6 °C 37.9 °F /  3.3 °C 30.1 in /  1017.5 hPa NW 5 mph /  8.0 km/h 16 mph /  25.7 km/h 91 % 0 in /  0.0 mm
06:37 40.3 °F /  4.6 °C 37.9 °F /  3.3 °C 30.1 in /  1017.5 hPa WNW 10 mph /  16.1 km/h 16 mph /  25.7 km/h 91 % 0 in /  0.0 mm
06:42 40.5 °F /  4.7 °C 38.1 °F /  3.4 °C 30.1 in /  1017.5 hPa NW 9 mph /  14.5 km/h 16 mph /  25.7 km/h 91 % 0 in /  0.0 mm
06:47 40.5 °F /  4.7 °C 38.1 °F /  3.4 °C 30.1 in /  1017.5 hPa NW 4 mph /  6.4 km/h 16 mph /  25.7 km/h 91 % 0 in /  0.0 mm
06:52 40.5 °F /  4.7 °C 38.1 °F /  3.4 °C 30.1 in /  1017.5 hPa NW 2 mph /  3.2 km/h 16 mph /  25.7 km/h 91 % 0 in /  0.0 mm
06:57 40.5 °F /  4.7 °C 38.1 °F /  3.4 °C 30.1 in /  1017.8 hPa NW 5 mph /  8.0 km/h 16 mph /  25.7 km/h 91 % 0 in /  0.0 mm
07:02 40.5 °F /  4.7 °C 38.1 °F /  3.4 °C 30.1 in /  1017.8 hPa NW 7 mph /  11.3 km/h 12 mph /  19.3 km/h 91 % 0 in /  0.0 mm
07:07 40.6 °F /  4.8 °C 38.3 °F /  3.5 °C 30.1 in /  1017.8 hPa North 6 mph /  9.7 km/h 12 mph /  19.3 km/h 91 % 0 in /  0.0 mm
07:12 40.8 °F /  4.9 °C 38.1 °F /  3.4 °C 30.1 in /  1017.8 hPa NW 10 mph /  16.1 km/h 13 mph /  20.9 km/h 90 % 0 in /  0.0 mm
07:17 40.8 °F /  4.9 °C 38.1 °F /  3.4 °C 30.1 in /  1017.8 hPa WNW 7 mph /  11.3 km/h 13 mph /  20.9 km/h 90 % 0 in /  0.0 mm
07:22 40.8 °F /  4.9 °C 38.1 °F /  3.4 °C 30.1 in /  1017.8 hPa NNW 5 mph /  8.0 km/h 11 mph /  17.7 km/h 90 % 0 in /  0.0 mm
07:27 40.8 °F /  4.9 °C 38.1 °F /  3.4 °C 30.1 in /  1017.8 hPa NW 2 mph /  3.2 km/h 11 mph /  17.7 km/h 90 % 0 in /  0.0 mm
07:32 40.8 °F /  4.9 °C 38.1 °F /  3.4 °C 30.1 in /  1017.8 hPa WNW 4 mph /  6.4 km/h 11 mph /  17.7 km/h 90 % 0 in /  0.0 mm
07:37 41 °F /  5.0 °C 38.3 °F /  3.5 °C 30.1 in /  1018.2 hPa WSW 3 mph /  4.8 km/h 13 mph /  20.9 km/h 90 % 0 in /  0.0 mm
07:42 41 °F /  5.0 °C 38.3 °F /  3.5 °C 30.1 in /  1018.2 hPa NW 3 mph /  4.8 km/h 13 mph /  20.9 km/h 90 % 0 in /  0.0 mm
07:47 41.2 °F /  5.1 °C 38.5 °F /  3.6 °C 30.1 in /  1018.5 hPa WNW 8 mph /  12.9 km/h 13 mph /  20.9 km/h 90 % 0 in /  0.0 mm
07:52 41 °F /  5.0 °C 38.3 °F /  3.5 °C 30.1 in /  1018.5 hPa NNW 4 mph /  6.4 km/h 13 mph /  20.9 km/h 90 % 0 in /  0.0 mm
07:57 41.2 °F /  5.1 °C 38.5 °F /  3.6 °C 30.1 in /  1018.5 hPa WNW 6 mph /  9.7 km/h 13 mph /  20.9 km/h 90 % 0 in /  0.0 mm
08:02 41 °F /  5.0 °C 38.3 °F /  3.5 °C 30.1 in /  1018.5 hPa NNW 4 mph /  6.4 km/h 11 mph /  17.7 km/h 90 % 0 in /  0.0 mm
08:12 41.2 °F /  5.1 °C 38.1 °F /  3.4 °C 30.1 in /  1018.8 hPa NW 6 mph /  9.7 km/h 15 mph /  24.1 km/h 89 % 0 in /  0.0 mm
08:17 41.2 °F /  5.1 °C 38.1 °F /  3.4 °C 30.1 in /  1018.8 hPa WNW 5 mph /  8.0 km/h 15 mph /  24.1 km/h 89 % 0 in /  0.0 mm
08:22 41.2 °F /  5.1 °C 38.1 °F /  3.4 °C 30.1 in /  1018.8 hPa WNW 4 mph /  6.4 km/h 15 mph /  24.1 km/h 89 % 0 in /  0.0 mm
08:27 41.2 °F /  5.1 °C 37.9 °F /  3.3 °C 30.1 in /  1018.8 hPa NNW 6 mph /  9.7 km/h 13 mph /  20.9 km/h 88 % 0 in /  0.0 mm
08:32 41.2 °F /  5.1 °C 37.9 °F /  3.3 °C 30.1 in /  1018.8 hPa WNW 3 mph /  4.8 km/h 13 mph /  20.9 km/h 88 % 0 in /  0.0 mm
08:37 41.2 °F /  5.1 °C 37.9 °F /  3.3 °C 30.1 in /  1019.2 hPa NW 2 mph /  3.2 km/h 13 mph /  20.9 km/h 88 % 0 in /  0.0 mm
08:42 41.2 °F /  5.1 °C 37.9 °F /  3.3 °C 30.1 in /  1019.2 hPa NW 5 mph /  8.0 km/h 10 mph /  16.1 km/h 88 % 0 in /  0.0 mm
08:47 41.2 °F /  5.1 °C 37.9 °F /  3.3 °C 30.1 in /  1019.2 hPa NNW 4 mph /  6.4 km/h 11 mph /  17.7 km/h 88 % 0 in /  0.0 mm
08:52 41.2 °F /  5.1 °C 37.9 °F /  3.3 °C 30.1 in /  1018.8 hPa West 5 mph /  8.0 km/h 11 mph /  17.7 km/h 88 % 0 in /  0.0 mm
08:57 41.2 °F /  5.1 °C 37.9 °F /  3.3 °C 30.1 in /  1019.2 hPa West 3 mph /  4.8 km/h 10 mph /  16.1 km/h 88 % 0 in /  0.0 mm
09:02 41.2 °F /  5.1 °C 38.1 °F /  3.4 °C 30.1 in /  1019.2 hPa NW 3 mph /  4.8 km/h 8 mph /  12.9 km/h 89 % 0 in /  0.0 mm
09:12 41.2 °F /  5.1 °C 38.1 °F /  3.4 °C 30.1 in /  1019.5 hPa NW 5 mph /  8.0 km/h 9 mph /  14.5 km/h 89 % 0 in /  0.0 mm
09:17 41.2 °F /  5.1 °C 38.1 °F /  3.4 °C 30.1 in /  1019.5 hPa NW 6 mph /  9.7 km/h 10 mph /  16.1 km/h 89 % 0 in /  0.0 mm
09:22 41.2 °F /  5.1 °C 38.1 °F /  3.4 °C 30.1 in /  1019.9 hPa WNW 7 mph /  11.3 km/h 10 mph /  16.1 km/h 89 % 0 in /  0.0 mm
09:32 40.8 °F /  4.9 °C 37.6 °F /  3.1 °C 30.1 in /  1019.5 hPa WNW 7 mph /  11.3 km/h 16 mph /  25.7 km/h 88 % 0 in /  0.0 mm
09:37 40.8 °F /  4.9 °C 37.8 °F /  3.2 °C 30.1 in /  1019.5 hPa WNW 4 mph /  6.4 km/h 16 mph /  25.7 km/h 89 % 0 in /  0.0 mm
09:42 40.8 °F /  4.9 °C 37.8 °F /  3.2 °C 30.1 in /  1019.5 hPa WNW 3 mph /  4.8 km/h 16 mph /  25.7 km/h 89 % 0 in /  0.0 mm
09:52 40.6 °F /  4.8 °C 37.6 °F /  3.1 °C 30.1 in /  1019.5 hPa WNW 7 mph /  11.3 km/h 11 mph /  17.7 km/h 89 % 0 in /  0.0 mm
09:57 40.6 °F /  4.8 °C 37.6 °F /  3.1 °C 30.1 in /  1019.9 hPa NNW 8 mph /  12.9 km/h 12 mph /  19.3 km/h 89 % 0 in /  0.0 mm
10:02 40.6 °F /  4.8 °C 37.6 °F /  3.1 °C 30.1 in /  1019.9 hPa West 5 mph /  8.0 km/h 12 mph /  19.3 km/h 89 % 0 in /  0.0 mm
10:07 40.6 °F /  4.8 °C 37.6 °F /  3.1 °C 30.1 in /  1019.9 hPa WNW 3 mph /  4.8 km/h 13 mph /  20.9 km/h 89 % 0 in /  0.0 mm
10:12 40.6 °F /  4.8 °C 37.6 °F /  3.1 °C 30.1 in /  1019.5 hPa WNW 6 mph /  9.7 km/h 13 mph /  20.9 km/h 89 % 0 in /  0.0 mm
10:17 40.6 °F /  4.8 °C 37.6 °F /  3.1 °C 30.1 in /  1019.9 hPa NW 8 mph /  12.9 km/h 11 mph /  17.7 km/h 89 % 0 in /  0.0 mm
10:22 40.6 °F /  4.8 °C 37.6 °F /  3.1 °C 30.1 in /  1019.9 hPa WNW 7 mph /  11.3 km/h 11 mph /  17.7 km/h 89 % 0 in /  0.0 mm
10:27 40.6 °F /  4.8 °C 37.6 °F /  3.1 °C 30.1 in /  1019.9 hPa NNW 4 mph /  6.4 km/h 11 mph /  17.7 km/h 89 % 0 in /  0.0 mm
10:32 40.6 °F /  4.8 °C 37.6 °F /  3.1 °C 30.1 in /  1019.9 hPa NW 3 mph /  4.8 km/h 11 mph /  17.7 km/h 89 % 0 in /  0.0 mm
10:37 40.5 °F /  4.7 °C 37.8 °F /  3.2 °C 30.1 in /  1019.9 hPa NW 2 mph /  3.2 km/h 11 mph /  17.7 km/h 90 % 0 in /  0.0 mm
10:42 40.6 °F /  4.8 °C 37.9 °F /  3.3 °C 30.1 in /  1019.9 hPa NNW 2 mph /  3.2 km/h 11 mph /  17.7 km/h 90 % 0 in /  0.0 mm
10:47 40.6 °F /  4.8 °C 37.6 °F /  3.1 °C 30.1 in /  1019.9 hPa WNW 4 mph /  6.4 km/h 11 mph /  17.7 km/h 89 % 0 in /  0.0 mm
10:52 40.6 °F /  4.8 °C 37.6 °F /  3.1 °C 30.1 in /  1019.9 hPa NNW 2 mph /  3.2 km/h 14 mph /  22.5 km/h 89 % 0 in /  0.0 mm
10:57 40.8 °F /  4.9 °C 38.1 °F /  3.4 °C 30.1 in /  1020.2 hPa West 7 mph /  11.3 km/h 14 mph /  22.5 km/h 90 % 0 in /  0.0 mm
11:02 40.8 °F /  4.9 °C 37.8 °F /  3.2 °C 30.1 in /  1020.2 hPa NW 4 mph /  6.4 km/h 14 mph /  22.5 km/h 89 % 0 in /  0.0 mm
11:07 40.8 °F /  4.9 °C 37.8 °F /  3.2 °C 30.1 in /  1020.2 hPa NNW 3 mph /  4.8 km/h 10 mph /  16.1 km/h 89 % 0 in /  0.0 mm
11:12 41 °F /  5.0 °C 37.9 °F /  3.3 °C 30.1 in /  1020.2 hPa NW 3 mph /  4.8 km/h 13 mph /  20.9 km/h 89 % 0 in /  0.0 mm
11:17 41.2 °F /  5.1 °C 38.5 °F /  3.6 °C 30.1 in /  1020.2 hPa NNW 4 mph /  6.4 km/h 13 mph /  20.9 km/h 90 % 0 in /  0.0 mm
11:22 41.2 °F /  5.1 °C 38.1 °F /  3.4 °C 30.1 in /  1020.2 hPa WNW 8 mph /  12.9 km/h 13 mph /  20.9 km/h 89 % 0 in /  0.0 mm
11:27 41.2 °F /  5.1 °C 38.1 °F /  3.4 °C 30.1 in /  1020.2 hPa NW 6 mph /  9.7 km/h 10 mph /  16.1 km/h 89 % 0 in /  0.0 mm
11:32 41.4 °F /  5.2 °C 38.1 °F /  3.4 °C 30.1 in /  1020.2 hPa NNW 2 mph /  3.2 km/h 10 mph /  16.1 km/h 88 % 0 in /  0.0 mm
11:37 41.5 °F /  5.3 °C 38.5 °F /  3.6 °C 30.1 in /  1020.2 hPa West 5 mph /  8.0 km/h 9 mph /  14.5 km/h 89 % 0 in /  0.0 mm
11:42 41.5 °F /  5.3 °C 38.3 °F /  3.5 °C 30.1 in /  1020.5 hPa WNW 3 mph /  4.8 km/h 9 mph /  14.5 km/h 88 % 0 in /  0.0 mm
11:47 41.5 °F /  5.3 °C 38.3 °F /  3.5 °C 30.1 in /  1020.5 hPa NW 3 mph /  4.8 km/h 9 mph /  14.5 km/h 88 % 0 in /  0.0 mm
11:52 41.7 °F /  5.4 °C 38.5 °F /  3.6 °C 30.1 in /  1020.5 hPa NW 3 mph /  4.8 km/h 9 mph /  14.5 km/h 88 % 0 in /  0.0 mm
11:57 41.7 °F /  5.4 °C 38.5 °F /  3.6 °C 30.1 in /  1020.5 hPa NW 6 mph /  9.7 km/h 9 mph /  14.5 km/h 88 % 0 in /  0.0 mm
12:02 42.1 °F /  5.6 °C 38.8 °F /  3.8 °C 30.1 in /  1020.5 hPa NNW 9 mph /  14.5 km/h 10 mph /  16.1 km/h 88 % 0 in /  0.0 mm
12:07 42.3 °F /  5.7 °C 39 °F /  3.9 °C 30.1 in /  1020.5 hPa WSW 4 mph /  6.4 km/h 10 mph /  16.1 km/h 88 % 0 in /  0.0 mm
12:12 42.3 °F /  5.7 °C 38.7 °F /  3.7 °C 30.1 in /  1020.5 hPa NW 5 mph /  8.0 km/h 10 mph /  16.1 km/h 87 % 0 in /  0.0 mm
12:17 42.3 °F /  5.7 °C 38.7 °F /  3.7 °C 30.1 in /  1020.5 hPa NW 6 mph /  9.7 km/h 12 mph /  19.3 km/h 87 % 0 in /  0.0 mm
12:22 42.3 °F /  5.7 °C 38.7 °F /  3.7 °C 30.1 in /  1020.2 hPa WNW 7 mph /  11.3 km/h 12 mph /  19.3 km/h 87 % 0 in /  0.0 mm
12:27 42.4 °F /  5.8 °C 38.8 °F /  3.8 °C 30.1 in /  1020.2 hPa NW 6 mph /  9.7 km/h 11 mph /  17.7 km/h 87 % 0 in /  0.0 mm
12:32 42.4 °F /  5.8 °C 38.8 °F /  3.8 °C 30.1 in /  1020.2 hPa WNW 6 mph /  9.7 km/h 11 mph /  17.7 km/h 87 % 0 in /  0.0 mm
12:42 42.4 °F /  5.8 °C 38.8 °F /  3.8 °C 30.1 in /  1020.5 hPa WNW 5 mph /  8.0 km/h 11 mph /  17.7 km/h 87 % 0 in /  0.0 mm
12:47 42.4 °F /  5.8 °C 38.5 °F /  3.6 °C 30.1 in /  1020.5 hPa WNW 4 mph /  6.4 km/h 11 mph /  17.7 km/h 86 % 0 in /  0.0 mm
12:52 42.4 °F /  5.8 °C 38.8 °F /  3.8 °C 30.1 in /  1020.5 hPa WNW 4 mph /  6.4 km/h 11 mph /  17.7 km/h 87 % 0 in /  0.0 mm
12:57 42.4 °F /  5.8 °C 38.8 °F /  3.8 °C 30.1 in /  1020.5 hPa NW 3 mph /  4.8 km/h 9 mph /  14.5 km/h 87 % 0 in /  0.0 mm
13:02 42.6 °F /  5.9 °C 38.7 °F /  3.7 °C 30.1 in /  1020.5 hPa NNW 3 mph /  4.8 km/h 9 mph /  14.5 km/h 86 % 0 in /  0.0 mm
13:12 42.8 °F /  6.0 °C 38.8 °F /  3.8 °C 30.1 in /  1020.5 hPa NNW 1 mph /  1.6 km/h 9 mph /  14.5 km/h 86 % 0 in /  0.0 mm
13:17 42.8 °F /  6.0 °C 38.7 °F /  3.7 °C 30.1 in /  1020.2 hPa WNW 1 mph /  1.6 km/h 9 mph /  14.5 km/h 85 % 0 in /  0.0 mm
13:22 43 °F /  6.1 °C 38.8 °F /  3.8 °C 30.1 in /  1020.2 hPa WNW 2 mph /  3.2 km/h 9 mph /  14.5 km/h 85 % 0 in /  0.0 mm
13:27 43.2 °F /  6.2 °C 38.7 °F /  3.7 °C 30.1 in /  1020.2 hPa NNW 3 mph /  4.8 km/h 9 mph /  14.5 km/h 84 % 0 in /  0.0 mm
13:32 43.2 °F /  6.2 °C 39 °F /  3.9 °C 30.1 in /  1020.2 hPa WNW 5 mph /  8.0 km/h 9 mph /  14.5 km/h 85 % 0 in /  0.0 mm
13:37 43.3 °F /  6.3 °C 38.8 °F /  3.8 °C 30.1 in /  1020.2 hPa West 5 mph /  8.0 km/h 9 mph /  14.5 km/h 84 % 0 in /  0.0 mm
13:42 43.3 °F /  6.3 °C 38.8 °F /  3.8 °C 30.1 in /  1020.2 hPa NW 3 mph /  4.8 km/h 9 mph /  14.5 km/h 84 % 0 in /  0.0 mm
13:47 43.5 °F /  6.4 °C 39 °F /  3.9 °C 30.1 in /  1020.2 hPa North 1 mph /  1.6 km/h 9 mph /  14.5 km/h 84 % 0 in /  0.0 mm
13:52 43.5 °F /  6.4 °C 39 °F /  3.9 °C 30.1 in /  1020.2 hPa NW 4 mph /  6.4 km/h 7 mph /  11.3 km/h 84 % 0 in /  0.0 mm
13:57 43.5 °F /  6.4 °C 38.7 °F /  3.7 °C 30.1 in /  1020.2 hPa North 3 mph /  4.8 km/h 7 mph /  11.3 km/h 83 % 0 in /  0.0 mm
14:02 43.5 °F /  6.4 °C 38.7 °F /  3.7 °C 30.1 in /  1020.2 hPa Calm   7 mph /  11.3 km/h 83 % 0 in /  0.0 mm
14:07 43.7 °F /  6.5 °C 39.2 °F /  4.0 °C 30.1 in /  1020.2 hPa Calm   6 mph /  9.7 km/h 84 % 0 in /  0.0 mm
14:12 43.7 °F /  6.5 °C 38.8 °F /  3.8 °C 30.1 in /  1020.2 hPa NW 1 mph /  1.6 km/h 6 mph /  9.7 km/h 83 % 0 in /  0.0 mm
14:17 43.7 °F /  6.5 °C 38.8 °F /  3.8 °C 30.1 in /  1020.2 hPa NW 1 mph /  1.6 km/h 8 mph /  12.9 km/h 83 % 0 in /  0.0 mm
14:22 43.9 °F /  6.6 °C 39 °F /  3.9 °C 30.1 in /  1020.2 hPa WNW 1 mph /  1.6 km/h 8 mph /  12.9 km/h 83 % 0 in /  0.0 mm
14:32 43.9 °F /  6.6 °C 38.7 °F /  3.7 °C 30.1 in /  1020.2 hPa West 2 mph /  3.2 km/h 6 mph /  9.7 km/h 82 % 0 in /  0.0 mm
14:37 43.9 °F /  6.6 °C 38.7 °F /  3.7 °C 30.1 in /  1020.2 hPa NW 2 mph /  3.2 km/h 6 mph /  9.7 km/h 82 % 0 in /  0.0 mm
14:42 43.9 °F /  6.6 °C 38.5 °F /  3.6 °C 30.1 in /  1020.2 hPa Calm   6 mph /  9.7 km/h 81 % 0 in /  0.0 mm
14:47 43.9 °F /  6.6 °C 38.1 °F /  3.4 °C 30.1 in /  1020.2 hPa WNW 1 mph /  1.6 km/h 5 mph /  8.0 km/h 80 % 0 in /  0.0 mm
14:52 44.1 °F /  6.7 °C 38.3 °F /  3.5 °C 30.1 in /  1020.2 hPa WNW 4 mph /  6.4 km/h 6 mph /  9.7 km/h 80 % 0 in /  0.0 mm
14:57 44.1 °F /  6.7 °C 37.9 °F /  3.3 °C 30.1 in /  1020.2 hPa Calm   6 mph /  9.7 km/h 79 % 0 in /  0.0 mm
15:02 44.4 °F /  6.9 °C 38.3 °F /  3.5 °C 30.1 in /  1020.2 hPa NNW 3 mph /  4.8 km/h 6 mph /  9.7 km/h 79 % 0 in /  0.0 mm
15:07 44.4 °F /  6.9 °C 38.3 °F /  3.5 °C 30.1 in /  1020.2 hPa WNW 1 mph /  1.6 km/h 5 mph /  8.0 km/h 79 % 0 in /  0.0 mm
15:12 44.4 °F /  6.9 °C 38.3 °F /  3.5 °C 30.1 in /  1020.2 hPa NW 1 mph /  1.6 km/h 3 mph /  4.8 km/h 79 % 0 in /  0.0 mm
15:17 44.4 °F /  6.9 °C 38.3 °F /  3.5 °C 30.1 in /  1020.2 hPa WNW 1 mph /  1.6 km/h 6 mph /  9.7 km/h 79 % 0 in /  0.0 mm
15:22 44.4 °F /  6.9 °C 38.3 °F /  3.5 °C 30.1 in /  1020.5 hPa WNW 1 mph /  1.6 km/h 6 mph /  9.7 km/h 79 % 0 in /  0.0 mm
15:27 44.6 °F /  7.0 °C 38.5 °F /  3.6 °C 30.1 in /  1020.5 hPa North 2 mph /  3.2 km/h 6 mph /  9.7 km/h 79 % 0 in /  0.0 mm
15:37 45 °F /  7.2 °C 38.8 °F /  3.8 °C 30.1 in /  1020.5 hPa West 1 mph /  1.6 km/h 4 mph /  6.4 km/h 79 % 0 in /  0.0 mm
15:42 45 °F /  7.2 °C 38.5 °F /  3.6 °C 30.1 in /  1020.5 hPa Calm   3 mph /  4.8 km/h 78 % 0 in /  0.0 mm
15:47 45.1 °F /  7.3 °C 38.7 °F /  3.7 °C 30.1 in /  1020.5 hPa Calm   3 mph /  4.8 km/h 78 % 0 in /  0.0 mm
15:57 45 °F /  7.2 °C 38.5 °F /  3.6 °C 30.1 in /  1020.2 hPa Calm   4 mph /  6.4 km/h 78 % 0 in /  0.0 mm
16:02 45 °F /  7.2 °C 38.5 °F /  3.6 °C 30.1 in /  1020.2 hPa Calm   4 mph /  6.4 km/h 78 % 0 in /  0.0 mm
16:07 45.1 °F /  7.3 °C 39 °F /  3.9 °C 30.1 in /  1020.2 hPa WNW 1 mph /  1.6 km/h 3 mph /  4.8 km/h 79 % 0 in /  0.0 mm
16:12 45 °F /  7.2 °C 38.5 °F /  3.6 °C 30.1 in /  1020.2 hPa WSW 1 mph /  1.6 km/h 3 mph /  4.8 km/h 78 % 0 in /  0.0 mm
16:17 45 °F /  7.2 °C 38.8 °F /  3.8 °C 30.1 in /  1020.5 hPa Calm   3 mph /  4.8 km/h 79 % 0 in /  0.0 mm
16:22 45 °F /  7.2 °C 38.8 °F /  3.8 °C 30.1 in /  1020.2 hPa Calm   2 mph /  3.2 km/h 79 % 0 in /  0.0 mm
16:32 45.5 °F /  7.5 °C 39.4 °F /  4.1 °C 30.1 in /  1020.5 hPa Calm   1 mph /  1.6 km/h 79 % 0 in /  0.0 mm
16:37 45.9 °F /  7.7 °C 39.7 °F /  4.3 °C 30.1 in /  1020.2 hPa Calm   1 mph /  1.6 km/h 79 % 0 in /  0.0 mm
16:42 46 °F /  7.8 °C 39.2 °F /  4.0 °C 30.1 in /  1020.2 hPa South 1 mph /  1.6 km/h 1 mph /  1.6 km/h 77 % 0 in /  0.0 mm
16:52 46.2 °F /  7.9 °C 39.7 °F /  4.3 °C 30.1 in /  1020.2 hPa Calm   2 mph /  3.2 km/h 78 % 0 in /  0.0 mm
16:57 46.4 °F /  8.0 °C 40.3 °F /  4.6 °C 30.1 in /  1020.2 hPa Calm   2 mph /  3.2 km/h 79 % 0 in /  0.0 mm
17:02 46 °F /  7.8 °C 38.8 °F /  3.8 °C 30.1 in /  1020.5 hPa WNW 4 mph /  6.4 km/h 4 mph /  6.4 km/h 76 % 0 in /  0.0 mm
17:07 45.7 °F /  7.6 °C 39.2 °F /  4.0 °C 30.1 in /  1020.5 hPa WNW 1 mph /  1.6 km/h 6 mph /  9.7 km/h 78 % 0 in /  0.0 mm
17:12 45.3 °F /  7.4 °C 38.8 °F /  3.8 °C 30.1 in /  1020.5 hPa West 2 mph /  3.2 km/h 6 mph /  9.7 km/h 78 % 0 in /  0.0 mm
17:17 45.1 °F /  7.3 °C 38.3 °F /  3.5 °C 30.1 in /  1020.5 hPa West 1 mph /  1.6 km/h 6 mph /  9.7 km/h 77 % 0 in /  0.0 mm
17:22 45 °F /  7.2 °C 38.5 °F /  3.6 °C 30.1 in /  1020.5 hPa WNW 2 mph /  3.2 km/h 6 mph /  9.7 km/h 78 % 0 in /  0.0 mm
17:27 45 °F /  7.2 °C 38.5 °F /  3.6 °C 30.1 in /  1020.5 hPa WNW 2 mph /  3.2 km/h 6 mph /  9.7 km/h 78 % 0 in /  0.0 mm
17:32 44.8 °F /  7.1 °C 38.3 °F /  3.5 °C 30.1 in /  1020.5 hPa Calm   3 mph /  4.8 km/h 78 % 0 in /  0.0 mm
17:37 44.8 °F /  7.1 °C 38.7 °F /  3.7 °C 30.2 in /  1020.9 hPa West 1 mph /  1.6 km/h 3 mph /  4.8 km/h 79 % 0 in /  0.0 mm
17:42 44.6 °F /  7.0 °C 38.1 °F /  3.4 °C 30.2 in /  1020.9 hPa West 2 mph /  3.2 km/h 4 mph /  6.4 km/h 78 % 0 in /  0.0 mm
17:47 44.4 °F /  6.9 °C 37.9 °F /  3.3 °C 30.2 in /  1020.9 hPa West 3 mph /  4.8 km/h 4 mph /  6.4 km/h 78 % 0 in /  0.0 mm
17:52 44.2 °F /  6.8 °C 37.8 °F /  3.2 °C 30.2 in /  1020.9 hPa WNW 3 mph /  4.8 km/h 4 mph /  6.4 km/h 78 % 0 in /  0.0 mm
17:57 44.1 °F /  6.7 °C 37.6 °F /  3.1 °C 30.2 in /  1020.9 hPa WNW 2 mph /  3.2 km/h 5 mph /  8.0 km/h 78 % 0 in /  0.0 mm
18:02 44.1 °F /  6.7 °C 37.6 °F /  3.1 °C 30.2 in /  1021.2 hPa West 1 mph /  1.6 km/h 5 mph /  8.0 km/h 78 % 0 in /  0.0 mm
18:07 43.7 °F /  6.5 °C 37.2 °F /  2.9 °C 30.2 in /  1021.2 hPa WNW 1 mph /  1.6 km/h 5 mph /  8.0 km/h 78 % 0 in /  0.0 mm
18:12 43.5 °F /  6.4 °C 37.4 °F /  3.0 °C 30.2 in /  1021.2 hPa West 2 mph /  3.2 km/h 4 mph /  6.4 km/h 79 % 0 in /  0.0 mm
18:17 43.5 °F /  6.4 °C 37.4 °F /  3.0 °C 30.2 in /  1021.2 hPa West 1 mph /  1.6 km/h 4 mph /  6.4 km/h 79 % 0 in /  0.0 mm
18:22 43.3 °F /  6.3 °C 37.6 °F /  3.1 °C 30.2 in /  1021.2 hPa West 2 mph /  3.2 km/h 4 mph /  6.4 km/h 80 % 0 in /  0.0 mm
18:27 43.2 °F /  6.2 °C 37.8 °F /  3.2 °C 30.2 in /  1021.2 hPa WSW 2 mph /  3.2 km/h 3 mph /  4.8 km/h 81 % 0 in /  0.0 mm
18:32 42.8 °F /  6.0 °C 37.8 °F /  3.2 °C 30.2 in /  1021.2 hPa West 2 mph /  3.2 km/h 4 mph /  6.4 km/h 82 % 0 in /  0.0 mm
18:37 42.6 °F /  5.9 °C 37.8 °F /  3.2 °C 30.2 in /  1021.2 hPa West 1 mph /  1.6 km/h 4 mph /  6.4 km/h 83 % 0 in /  0.0 mm
18:42 42.4 °F /  5.8 °C 37.6 °F /  3.1 °C 30.2 in /  1021.2 hPa West 1 mph /  1.6 km/h 4 mph /  6.4 km/h 83 % 0 in /  0.0 mm
18:47 42.3 °F /  5.7 °C 37.8 °F /  3.2 °C 30.2 in /  1021.2 hPa West 1 mph /  1.6 km/h 4 mph /  6.4 km/h 84 % 0 in /  0.0 mm
18:52 42.3 °F /  5.7 °C 37.8 °F /  3.2 °C 30.2 in /  1021.2 hPa Calm   4 mph /  6.4 km/h 84 % 0 in /  0.0 mm
18:57 42.1 °F /  5.6 °C 37.6 °F /  3.1 °C 30.2 in /  1021.2 hPa WSW 1 mph /  1.6 km/h 2 mph /  3.2 km/h 84 % 0 in /  0.0 mm
19:02 42.3 °F /  5.7 °C 37.4 °F /  3.0 °C 30.2 in /  1021.2 hPa WSW 1 mph /  1.6 km/h 2 mph /  3.2 km/h 83 % 0 in /  0.0 mm
19:07 42.3 °F /  5.7 °C 37.4 °F /  3.0 °C 30.2 in /  1021.2 hPa West 1 mph /  1.6 km/h 1 mph /  1.6 km/h 83 % 0 in /  0.0 mm
19:12 42.3 °F /  5.7 °C 37.4 °F /  3.0 °C 30.2 in /  1021.2 hPa Calm   3 mph /  4.8 km/h 83 % 0 in /  0.0 mm
19:17 42.1 °F /  5.6 °C 37.2 °F /  2.9 °C 30.2 in /  1021.2 hPa West 1 mph /  1.6 km/h 3 mph /  4.8 km/h 83 % 0 in /  0.0 mm
19:22 41.9 °F /  5.5 °C 37.4 °F /  3.0 °C 30.2 in /  1021.2 hPa Calm   2 mph /  3.2 km/h 84 % 0 in /  0.0 mm
19:27 41.7 °F /  5.4 °C 37.2 °F /  2.9 °C 30.2 in /  1021.2 hPa Calm   2 mph /  3.2 km/h 84 % 0 in /  0.0 mm
19:32 41.5 °F /  5.3 °C 37 °F /  2.8 °C 30.2 in /  1021.2 hPa Calm   2 mph /  3.2 km/h 84 % 0 in /  0.0 mm
19:37 41.5 °F /  5.3 °C 37.4 °F /  3.0 °C 30.2 in /  1021.2 hPa Calm   1 mph /  1.6 km/h 85 % 0 in /  0.0 mm
19:42 41.5 °F /  5.3 °C 37.4 °F /  3.0 °C 30.2 in /  1021.2 hPa Calm     85 % 0 in /  0.0 mm
19:47 41.4 °F /  5.2 °C 37.2 °F /  2.9 °C 30.2 in /  1021.2 hPa Calm     85 % 0 in /  0.0 mm
19:52 41.2 °F /  5.1 °C 37.4 °F /  3.0 °C 30.2 in /  1021.2 hPa Calm     86 % 0 in /  0.0 mm
19:57 40.8 °F /  4.9 °C 37 °F /  2.8 °C 30.2 in /  1021.2 hPa Calm     86 % 0 in /  0.0 mm
20:02 40.6 °F /  4.8 °C 37 °F /  2.8 °C 30.2 in /  1020.9 hPa Calm     87 % 0 in /  0.0 mm
20:07 40.5 °F /  4.7 °C 37.2 °F /  2.9 °C 30.2 in /  1020.9 hPa Calm     88 % 0 in /  0.0 mm
20:12 40.3 °F /  4.6 °C 37 °F /  2.8 °C 30.2 in /  1020.9 hPa Calm     88 % 0 in /  0.0 mm
20:17 40.1 °F /  4.5 °C 36.9 °F /  2.7 °C 30.2 in /  1020.9 hPa Calm     88 % 0 in /  0.0 mm
20:22 39.9 °F /  4.4 °C 36.9 °F /  2.7 °C 30.2 in /  1020.9 hPa Calm     89 % 0 in /  0.0 mm
20:27 39.7 °F /  4.3 °C 36.7 °F /  2.6 °C 30.2 in /  1020.9 hPa Calm     89 % 0 in /  0.0 mm
20:32 39.7 °F /  4.3 °C 36.7 °F /  2.6 °C 30.2 in /  1020.9 hPa Calm     89 % 0 in /  0.0 mm
20:42 39.6 °F /  4.2 °C 36.9 °F /  2.7 °C 30.1 in /  1020.5 hPa Calm     90 % 0 in /  0.0 mm
20:47 39.6 °F /  4.2 °C 36.9 °F /  2.7 °C 30.1 in /  1020.5 hPa Calm   2 mph /  3.2 km/h 90 % 0 in /  0.0 mm
20:52 39.6 °F /  4.2 °C 36.9 °F /  2.7 °C 30.1 in /  1020.5 hPa Calm   2 mph /  3.2 km/h 90 % 0 in /  0.0 mm
20:57 39.7 °F /  4.3 °C 37 °F /  2.8 °C 30.1 in /  1020.5 hPa Calm   1 mph /  1.6 km/h 90 % 0 in /  0.0 mm
21:02 39.7 °F /  4.3 °C 37 °F /  2.8 °C 30.1 in /  1020.5 hPa Calm   1 mph /  1.6 km/h 90 % 0 in /  0.0 mm
21:07 39.7 °F /  4.3 °C 36.7 °F /  2.6 °C 30.1 in /  1020.5 hPa Calm   2 mph /  3.2 km/h 89 % 0 in /  0.0 mm
21:12 39.6 °F /  4.2 °C 36.9 °F /  2.7 °C 30.1 in /  1020.5 hPa Calm   2 mph /  3.2 km/h 90 % 0 in /  0.0 mm
21:17 39.6 °F /  4.2 °C 36.9 °F /  2.7 °C 30.1 in /  1020.5 hPa Calm   2 mph /  3.2 km/h 90 % 0 in /  0.0 mm
21:22 39.4 °F /  4.1 °C 36.7 °F /  2.6 °C 30.1 in /  1020.5 hPa Calm   1 mph /  1.6 km/h 90 % 0 in /  0.0 mm
21:27 39.4 °F /  4.1 °C 36.7 °F /  2.6 °C 30.1 in /  1020.2 hPa Calm   1 mph /  1.6 km/h 90 % 0 in /  0.0 mm
21:32 39.2 °F /  4.0 °C 36.9 °F /  2.7 °C 30.1 in /  1020.5 hPa Calm   1 mph /  1.6 km/h 91 % 0 in /  0.0 mm
21:37 39 °F /  3.9 °C 36.7 °F /  2.6 °C 30.1 in /  1020.2 hPa Calm   1 mph /  1.6 km/h 91 % 0 in /  0.0 mm
21:42 39 °F /  3.9 °C 36.7 °F /  2.6 °C 30.1 in /  1020.2 hPa Calm   1 mph /  1.6 km/h 91 % 0 in /  0.0 mm
21:47 39 °F /  3.9 °C 36.7 °F /  2.6 °C 30.1 in /  1020.2 hPa SSW 1 mph /  1.6 km/h 1 mph /  1.6 km/h 91 % 0 in /  0.0 mm
21:52 39 °F /  3.9 °C 36.7 °F /  2.6 °C 30.1 in /  1020.2 hPa Calm   1 mph /  1.6 km/h 91 % 0 in /  0.0 mm
21:57 38.8 °F /  3.8 °C 36.5 °F /  2.5 °C 30.1 in /  1020.2 hPa SW 1 mph /  1.6 km/h 1 mph /  1.6 km/h 91 % 0 in /  0.0 mm
22:02 39 °F /  3.9 °C 36.7 °F /  2.6 °C 30.1 in /  1020.2 hPa SSW 1 mph /  1.6 km/h 2 mph /  3.2 km/h 91 % 0 in /  0.0 mm
22:12 39.4 °F /  4.1 °C 36.7 °F /  2.6 °C 30.1 in /  1020.2 hPa Calm   2 mph /  3.2 km/h 90 % 0 in /  0.0 mm
22:17 39.4 °F /  4.1 °C 36.7 °F /  2.6 °C 30.1 in /  1020.2 hPa SSW 1 mph /  1.6 km/h 2 mph /  3.2 km/h 90 % 0 in /  0.0 mm
22:22 39.4 °F /  4.1 °C 36.7 °F /  2.6 °C 30.1 in /  1019.9 hPa Calm   2 mph /  3.2 km/h 90 % 0 in /  0.0 mm
22:27 39.4 °F /  4.1 °C 36.7 °F /  2.6 °C 30.1 in /  1019.9 hPa Calm   2 mph /  3.2 km/h 90 % 0 in /  0.0 mm
22:32 39.6 °F /  4.2 °C 36.9 °F /  2.7 °C 30.1 in /  1019.9 hPa SSW 1 mph /  1.6 km/h 2 mph /  3.2 km/h 90 % 0 in /  0.0 mm
22:37 39.4 °F /  4.1 °C 36.7 °F /  2.6 °C 30.1 in /  1019.9 hPa South 1 mph /  1.6 km/h 2 mph /  3.2 km/h 90 % 0 in /  0.0 mm
22:42 39.4 °F /  4.1 °C 36.7 °F /  2.6 °C 30.1 in /  1019.9 hPa SSW 1 mph /  1.6 km/h 2 mph /  3.2 km/h 90 % 0 in /  0.0 mm
22:47 39.4 °F /  4.1 °C 37 °F /  2.8 °C 30.1 in /  1019.9 hPa SW 1 mph /  1.6 km/h 2 mph /  3.2 km/h 91 % 0 in /  0.0 mm
22:52 39.4 °F /  4.1 °C 37 °F /  2.8 °C 30.1 in /  1019.9 hPa SSW 1 mph /  1.6 km/h 3 mph /  4.8 km/h 91 % 0 in /  0.0 mm
22:57 39.4 °F /  4.1 °C 37 °F /  2.8 °C 30.1 in /  1019.9 hPa South 1 mph /  1.6 km/h 3 mph /  4.8 km/h 91 % 0 in /  0.0 mm
23:02 39.4 °F /  4.1 °C 37 °F /  2.8 °C 30.1 in /  1019.9 hPa SSW 1 mph /  1.6 km/h 3 mph /  4.8 km/h 91 % 0 in /  0.0 mm
23:07 39.4 °F /  4.1 °C 37 °F /  2.8 °C 30.1 in /  1019.9 hPa Calm   2 mph /  3.2 km/h 91 % 0 in /  0.0 mm
23:12 39.2 °F /  4.0 °C 37 °F /  2.8 °C 30.1 in /  1019.9 hPa Calm   2 mph /  3.2 km/h 92 % 0 in /  0.0 mm
23:17 39 °F /  3.9 °C 36.9 °F /  2.7 °C 30.1 in /  1019.5 hPa Calm   2 mph /  3.2 km/h 92 % 0 in /  0.0 mm
23:22 39.2 °F /  4.0 °C 37 °F /  2.8 °C 30.1 in /  1019.5 hPa South 1 mph /  1.6 km/h 1 mph /  1.6 km/h 92 % 0 in /  0.0 mm
23:27 39.4 °F /  4.1 °C 37 °F /  2.8 °C 30.1 in /  1019.5 hPa Calm   1 mph /  1.6 km/h 91 % 0 in /  0.0 mm
23:32 39.2 °F /  4.0 °C 36.9 °F /  2.7 °C 30.1 in /  1019.5 hPa Calm   1 mph /  1.6 km/h 91 % 0 in /  0.0 mm
23:37 39.2 °F /  4.0 °C 37 °F /  2.8 °C 30.1 in /  1019.5 hPa Calm   1 mph /  1.6 km/h 92 % 0 in /  0.0 mm
23:42 39.2 °F /  4.0 °C 37 °F /  2.8 °C 30.1 in /  1019.5 hPa SSW 1 mph /  1.6 km/h 1 mph /  1.6 km/h 92 % 0 in /  0.0 mm
23:47 39.4 °F /  4.1 °C 37 °F /  2.8 °C 30.1 in /  1019.5 hPa Calm   3 mph /  4.8 km/h 91 % 0 in /  0.0 mm
23:52 39.6 °F /  4.2 °C 37.2 °F /  2.9 °C 30.1 in /  1019.5 hPa South 2 mph /  3.2 km/h 3 mph /  4.8 km/h 91 % 0 in /  0.0 mm
23:57 39.6 °F /  4.2 °C 36.9 °F /  2.7 °C 30.1 in /  1019.5 hPa Calm   3 mph /  4.8 km/h 90 % 0 in /  0.0 mm
Meteo18
Compliments of Weather Underground - 4 mb

Script developed by  Jim McMurry - jmcmurry@mwt.net Adapted for the template by  Wim van der Kuil - Leuven-Template.eu

You find our weather info also at:

European Weather Network

Weather Underground

Equipment we use:

Weather-station
Davis Vue

Weather-program
Meteohub

Weather-server
Raspberry PI 2 B+

Provider
1 and 1

Davis Vue

Meteohub

Raspberry PI 2 B+

1 and 1